sensor_id;sensor_type;location;lat;lon;timestamp;pressure;altitude;pressure_sealevel;temperature;humidity
76627;BME280;65519;53.230;10.390;2024-02-21T00:00:02;101537.38;;;8.56;100.00
76627;BME280;65519;53.230;10.390;2024-02-21T00:02:29;101543.66;;;8.68;100.00
76627;BME280;65519;53.230;10.390;2024-02-21T00:04:54;101539.97;;;8.51;100.00
76627;BME280;65519;53.230;10.390;2024-02-21T00:07:20;101548.97;;;8.52;100.00
76627;BME280;65519;53.230;10.390;2024-02-21T00:09:45;101531.84;;;8.51;100.00
76627;BME280;65519;53.230;10.390;2024-02-21T00:12:11;101538.56;;;8.60;100.00
76627;BME280;65519;53.230;10.390;2024-02-21T00:14:38;101533.50;;;8.52;100.00
76627;BME280;65519;53.230;10.390;2024-02-21T00:17:04;101534.19;;;8.59;100.00
76627;BME280;65519;53.230;10.390;2024-02-21T00:19:29;101533.00;;;8.67;100.00
76627;BME280;65519;53.230;10.390;2024-02-21T00:21:55;101532.53;;;8.58;100.00
76627;BME280;65519;53.230;10.390;2024-02-21T00:24:20;101538.09;;;8.63;100.00
76627;BME280;65519;53.230;10.390;2024-02-21T00:26:46;101517.53;;;8.56;100.00
76627;BME280;65519;53.230;10.390;2024-02-21T00:29:11;101519.78;;;8.59;100.00
76627;BME280;65519;53.230;10.390;2024-02-21T00:31:37;101518.72;;;8.60;100.00
76627;BME280;65519;53.230;10.390;2024-02-21T00:34:02;101508.22;;;8.63;100.00
76627;BME280;65519;53.230;10.390;2024-02-21T00:36:27;101499.09;;;8.58;100.00
76627;BME280;65519;53.230;10.390;2024-02-21T00:38:53;101508.69;;;8.60;100.00
76627;BME280;65519;53.230;10.390;2024-02-21T00:41:18;101494.94;;;8.55;100.00
76627;BME280;65519;53.230;10.390;2024-02-21T00:43:44;101492.59;;;8.59;100.00
76627;BME280;65519;53.230;10.390;2024-02-21T00:46:09;101491.41;;;8.55;100.00
76627;BME280;65519;53.230;10.390;2024-02-21T00:48:35;101490.94;;;8.69;100.00
76627;BME280;65519;53.230;10.390;2024-02-21T00:51:00;101490.84;;;8.53;100.00
76627;BME280;65519;53.230;10.390;2024-02-21T00:53:26;101478.53;;;8.50;100.00
76627;BME280;65519;53.230;10.390;2024-02-21T00:55:51;101488.00;;;8.59;100.00
76627;BME280;65519;53.230;10.390;2024-02-21T00:58:17;101475.47;;;8.58;100.00
76627;BME280;65519;53.230;10.390;2024-02-21T01:00:42;101473.44;;;8.65;100.00
76627;BME280;65519;53.230;10.390;2024-02-21T01:03:08;101469.19;;;8.58;100.00
76627;BME280;65519;53.230;10.390;2024-02-21T01:05:33;101461.50;;;8.55;100.00
76627;BME280;65519;53.230;10.390;2024-02-21T01:07:58;101459.75;;;8.49;100.00
76627;BME280;65519;53.230;10.390;2024-02-21T01:10:24;101460.22;;;8.57;100.00
76627;BME280;65519;53.230;10.390;2024-02-21T01:12:52;101456.44;;;8.58;100.00
76627;BME280;65519;53.230;10.390;2024-02-21T01:15:18;101450.91;;;8.53;100.00
76627;BME280;65519;53.230;10.390;2024-02-21T01:17:43;101434.59;;;8.53;100.00
76627;BME280;65519;53.230;10.390;2024-02-21T01:20:09;101446.16;;;8.60;100.00
76627;BME280;65519;53.230;10.390;2024-02-21T01:22:34;101453.94;;;8.68;100.00
76627;BME280;65519;53.230;10.390;2024-02-21T01:25:00;101452.78;;;8.64;100.00
76627;BME280;65519;53.230;10.390;2024-02-21T01:27:25;101456.56;;;8.63;100.00
76627;BME280;65519;53.230;10.390;2024-02-21T01:29:51;101437.66;;;8.68;100.00
76627;BME280;65519;53.230;10.390;2024-02-21T01:32:16;101444.13;;;8.67;100.00
76627;BME280;65519;53.230;10.390;2024-02-21T01:34:42;101435.28;;;8.72;100.00
76627;BME280;65519;53.230;10.390;2024-02-21T01:37:08;101422.41;;;8.67;100.00
76627;BME280;65519;53.230;10.390;2024-02-21T01:39:34;101428.19;;;8.71;100.00
76627;BME280;65519;53.230;10.390;2024-02-21T01:42:00;101422.63;;;8.66;100.00
76627;BME280;65519;53.230;10.390;2024-02-21T01:44:25;101411.66;;;8.72;100.00
76627;BME280;65519;53.230;10.390;2024-02-21T01:46:52;101416.94;;;8.79;100.00
76627;BME280;65519;53.230;10.390;2024-02-21T01:49:19;101408.09;;;8.84;100.00
76627;BME280;65519;53.230;10.390;2024-02-21T01:51:46;101417.19;;;8.77;100.00
76627;BME280;65519;53.230;10.390;2024-02-21T01:54:13;101411.88;;;8.83;100.00
76627;BME280;65519;53.230;10.390;2024-02-21T01:56:40;101407.50;;;8.82;100.00
76627;BME280;65519;53.230;10.390;2024-02-21T01:59:06;101410.22;;;8.82;100.00
76627;BME280;65519;53.230;10.390;2024-02-21T02:01:32;101414.66;;;8.88;100.00
76627;BME280;65519;53.230;10.390;2024-02-21T02:03:59;101401.81;;;8.83;100.00
76627;BME280;65519;53.230;10.390;2024-02-21T02:06:24;101401.47;;;8.79;100.00
76627;BME280;65519;53.230;10.390;2024-02-21T02:08:50;101392.25;;;8.81;100.00
76627;BME280;65519;53.230;10.390;2024-02-21T02:11:16;101376.78;;;8.69;100.00
76627;BME280;65519;53.230;10.390;2024-02-21T02:13:42;101380.81;;;8.67;100.00
76627;BME280;65519;53.230;10.390;2024-02-21T02:16:07;101369.56;;;8.75;100.00
76627;BME280;65519;53.230;10.390;2024-02-21T02:18:33;101370.59;;;8.86;100.00
76627;BME280;65519;53.230;10.390;2024-02-21T02:20:58;101355.38;;;8.85;100.00
76627;BME280;65519;53.230;10.390;2024-02-21T02:23:31;101363.19;;;8.69;100.00
76627;BME280;65519;53.230;10.390;2024-02-21T02:25:57;101358.59;;;8.70;100.00
76627;BME280;65519;53.230;10.390;2024-02-21T02:28:23;101345.69;;;8.65;100.00
76627;BME280;65519;53.230;10.390;2024-02-21T02:30:49;101325.13;;;8.69;100.00
76627;BME280;65519;53.230;10.390;2024-02-21T02:33:14;101323.00;;;8.71;100.00
76627;BME280;65519;53.230;10.390;2024-02-21T02:35:40;101319.34;;;8.66;100.00
76627;BME280;65519;53.230;10.390;2024-02-21T02:38:06;101320.69;;;8.63;100.00
76627;BME280;65519;53.230;10.390;2024-02-21T02:40:33;101320.28;;;8.71;100.00
76627;BME280;65519;53.230;10.390;2024-02-21T02:42:59;101319.72;;;8.69;100.00
76627;BME280;65519;53.230;10.390;2024-02-21T02:45:25;101298.34;;;8.61;100.00
76627;BME280;65519;53.230;10.390;2024-02-21T02:47:54;101289.97;;;8.63;100.00
76627;BME280;65519;53.230;10.390;2024-02-21T02:50:20;101286.41;;;8.62;100.00
76627;BME280;65519;53.230;10.390;2024-02-21T02:52:46;101283.94;;;8.61;100.00
76627;BME280;65519;53.230;10.390;2024-02-21T02:55:11;101279.69;;;8.65;100.00
76627;BME280;65519;53.230;10.390;2024-02-21T02:57:37;101268.09;;;8.58;100.00
76627;BME280;65519;53.230;10.390;2024-02-21T03:00:03;101283.09;;;8.60;100.00
76627;BME280;65519;53.230;10.390;2024-02-21T03:02:29;101267.03;;;8.59;100.00
76627;BME280;65519;53.230;10.390;2024-02-21T03:04:55;101263.38;;;8.65;100.00
76627;BME280;65519;53.230;10.390;2024-02-21T03:07:20;101280.34;;;8.72;100.00
76627;BME280;65519;53.230;10.390;2024-02-21T03:09:46;101263.38;;;8.65;100.00
76627;BME280;65519;53.230;10.390;2024-02-21T03:12:11;101265.59;;;8.68;100.00
76627;BME280;65519;53.230;10.390;2024-02-21T03:14:37;101262.88;;;8.68;100.00
76627;BME280;65519;53.230;10.390;2024-02-21T03:17:03;101252.22;;;8.66;100.00
76627;BME280;65519;53.230;10.390;2024-02-21T03:19:29;101241.47;;;8.71;100.00
76627;BME280;65519;53.230;10.390;2024-02-21T03:21:54;101257.31;;;8.74;100.00
76627;BME280;65519;53.230;10.390;2024-02-21T03:24:20;101247.81;;;8.77;100.00
76627;BME280;65519;53.230;10.390;2024-02-21T03:26:46;101243.19;;;8.77;100.00
76627;BME280;65519;53.230;10.390;2024-02-21T03:29:14;101240.81;;;8.81;100.00
76627;BME280;65519;53.230;10.390;2024-02-21T03:31:39;101253.19;;;8.89;100.00
76627;BME280;65519;53.230;10.390;2024-02-21T03:34:05;101264.22;;;8.82;100.00
76627;BME280;65519;53.230;10.390;2024-02-21T03:36:30;101256.31;;;8.81;100.00
76627;BME280;65519;53.230;10.390;2024-02-21T03:38:56;101267.72;;;8.94;100.00
76627;BME280;65519;53.230;10.390;2024-02-21T03:41:21;101252.72;;;8.92;100.00
76627;BME280;65519;53.230;10.390;2024-02-21T03:43:47;101252.88;;;8.85;100.00
76627;BME280;65519;53.230;10.390;2024-02-21T03:46:13;101263.09;;;8.95;100.00
76627;BME280;65519;53.230;10.390;2024-02-21T03:48:38;101261.47;;;8.94;100.00
76627;BME280;65519;53.230;10.390;2024-02-21T03:51:04;101259.88;;;8.98;100.00
76627;BME280;65519;53.230;10.390;2024-02-21T03:53:30;101252.72;;;8.92;100.00
76627;BME280;65519;53.230;10.390;2024-02-21T03:55:55;101255.13;;;9.05;100.00
76627;BME280;65519;53.230;10.390;2024-02-21T03:58:21;101259.88;;;8.98;100.00
76627;BME280;65519;53.230;10.390;2024-02-21T04:00:47;101259.16;;;9.02;100.00
76627;BME280;65519;53.230;10.390;2024-02-21T04:03:13;101254.44;;;8.98;100.00
76627;BME280;65519;53.230;10.390;2024-02-21T04:05:38;101255.38;;;9.03;100.00
76627;BME280;65519;53.230;10.390;2024-02-21T04:08:07;101259.16;;;9.02;100.00
76627;BME280;65519;53.230;10.390;2024-02-21T04:10:33;101256.78;;;9.06;100.00
76627;BME280;65519;53.230;10.390;2024-02-21T04:12:58;101253.72;;;9.02;100.00
76627;BME280;65519;53.230;10.390;2024-02-21T04:15:24;101259.41;;;9.01;100.00
76627;BME280;65519;53.230;10.390;2024-02-21T04:17:49;101257.28;;;9.03;100.00
76627;BME280;65519;53.230;10.390;2024-02-21T04:20:17;101264.13;;;9.05;100.00
76627;BME280;65519;53.230;10.390;2024-02-21T04:22:46;101257.28;;;9.03;100.00
76627;BME280;65519;53.230;10.390;2024-02-21T04:25:11;101261.16;;;9.07;100.00
76627;BME280;65519;53.230;10.390;2024-02-21T04:27:38;101256.84;;;9.11;100.00
76627;BME280;65519;53.230;10.390;2024-02-21T04:30:05;101251.41;;;9.11;100.00
76627;BME280;65519;53.230;10.390;2024-02-21T04:32:30;101251.59;;;9.04;100.00
76627;BME280;65519;53.230;10.390;2024-02-21T04:34:56;101242.38;;;9.05;100.00
76627;BME280;65519;53.230;10.390;2024-02-21T04:37:21;101250.66;;;8.99;100.00
76627;BME280;65519;53.230;10.390;2024-02-21T04:39:48;101254.13;;;9.11;100.00
76627;BME280;65519;53.230;10.390;2024-02-21T04:42:14;101243.31;;;8.99;100.00
76627;BME280;65519;53.230;10.390;2024-02-21T04:44:40;101242.03;;;9.02;100.00
76627;BME280;65519;53.230;10.390;2024-02-21T04:47:05;101233.38;;;9.05;100.00
76627;BME280;65519;53.230;10.390;2024-02-21T04:49:31;101228.66;;;9.00;100.00
76627;BME280;65519;53.230;10.390;2024-02-21T04:51:57;101231.31;;;8.95;100.00
76627;BME280;65519;53.230;10.390;2024-02-21T04:54:22;101214.06;;;8.90;100.00
76627;BME280;65519;53.230;10.390;2024-02-21T04:56:48;101217.28;;;8.87;100.00
76627;BME280;65519;53.230;10.390;2024-02-21T04:59:13;101219.03;;;8.93;100.00
76627;BME280;65519;53.230;10.390;2024-02-21T05:01:39;101214.06;;;8.90;100.00
76627;BME280;65519;53.230;10.390;2024-02-21T05:04:04;101228.47;;;8.73;100.00
76627;BME280;65519;53.230;10.390;2024-02-21T05:06:30;101214.28;;;8.71;100.00
76627;BME280;65519;53.230;10.390;2024-02-21T05:08:55;101205.84;;;8.85;100.00
76627;BME280;65519;53.230;10.390;2024-02-21T05:11:23;101211.09;;;8.74;100.00
76627;BME280;65519;53.230;10.390;2024-02-21T05:13:49;101219.38;;;8.68;100.00
76627;BME280;65519;53.230;10.390;2024-02-21T05:16:15;101225.63;;;8.68;100.00
76627;BME280;65519;53.230;10.390;2024-02-21T05:18:41;101214.94;;;8.78;100.00
76627;BME280;65519;53.230;10.390;2024-02-21T05:21:08;101216.19;;;8.71;100.00
76627;BME280;65519;53.230;10.390;2024-02-21T05:23:33;101211.41;;;8.78;100.00
76627;BME280;65519;53.230;10.390;2024-02-21T05:25:59;101213.16;;;8.84;100.00
76627;BME280;65519;53.230;10.390;2024-02-21T05:28:24;101218.56;;;8.67;100.00
76627;BME280;65519;53.230;10.390;2024-02-21T05:30:49;101210.69;;;8.83;100.00
76627;BME280;65519;53.230;10.390;2024-02-21T05:33:15;101213.16;;;8.84;100.00
76627;BME280;65519;53.230;10.390;2024-02-21T05:35:47;101224.22;;;8.94;100.00
76627;BME280;65519;53.230;10.390;2024-02-21T05:38:13;101211.44;;;8.95;100.00
76627;BME280;65519;53.230;10.390;2024-02-21T05:40:39;101205.94;;;9.06;100.00
76627;BME280;65519;53.230;10.390;2024-02-21T05:43:04;101214.41;;;9.10;100.00
76627;BME280;65519;53.230;10.390;2024-02-21T05:45:30;101207.56;;;8.91;100.00
76627;BME280;65519;53.230;10.390;2024-02-21T05:47:55;101213.28;;;9.06;100.00
76627;BME280;65519;53.230;10.390;2024-02-21T05:50:22;101212.41;;;8.89;100.00
76627;BME280;65519;53.230;10.390;2024-02-21T05:52:51;101212.88;;;8.97;100.00
76627;BME280;65519;53.230;10.390;2024-02-21T05:55:16;101206.75;;;9.07;100.00
76627;BME280;65519;53.230;10.390;2024-02-21T05:57:42;101207.38;;;8.81;100.00
76627;BME280;65519;53.230;10.390;2024-02-21T06:00:08;101210.69;;;8.83;100.00
76627;BME280;65519;53.230;10.390;2024-02-21T06:02:39;101203.59;;;8.65;100.00
76627;BME280;65519;53.230;10.390;2024-02-21T06:05:06;101203.22;;;8.61;100.00
76627;BME280;65519;53.230;10.390;2024-02-21T06:07:35;101199.53;;;8.67;100.00
76627;BME280;65519;53.230;10.390;2024-02-21T06:10:01;101199.28;;;8.69;100.00
76627;BME280;65519;53.230;10.390;2024-02-21T06:12:27;101201.88;;;8.75;100.00
76627;BME280;65519;53.230;10.390;2024-02-21T06:14:52;101210.25;;;8.74;100.00
76627;BME280;65519;53.230;10.390;2024-02-21T06:17:18;101209.91;;;8.70;100.00
76627;BME280;65519;53.230;10.390;2024-02-21T06:19:44;101191.28;;;8.62;100.00
76627;BME280;65519;53.230;10.390;2024-02-21T06:22:10;101202.16;;;8.62;100.00
76627;BME280;65519;53.230;10.390;2024-02-21T06:24:36;101208.03;;;8.71;100.00
76627;BME280;65519;53.230;10.390;2024-02-21T06:27:05;101196.72;;;8.62;100.00
76627;BME280;65519;53.230;10.390;2024-02-21T06:29:33;101200.47;;;8.73;100.00
76627;BME280;65519;53.230;10.390;2024-02-21T06:32:00;101203.75;;;8.75;100.00
76627;BME280;65519;53.230;10.390;2024-02-21T06:34:25;101202.78;;;8.81;100.00
76627;BME280;65519;53.230;10.390;2024-02-21T06:36:51;101210.09;;;8.81;100.00
76627;BME280;65519;53.230;10.390;2024-02-21T06:39:16;101205.66;;;8.74;100.00
76627;BME280;65519;53.230;10.390;2024-02-21T06:41:42;101217.72;;;8.67;100.00
76627;BME280;65519;53.230;10.390;2024-02-21T06:44:08;101199.28;;;8.69;100.00
76627;BME280;65519;53.230;10.390;2024-02-21T06:46:34;101198.94;;;8.65;100.00
76627;BME280;65519;53.230;10.390;2024-02-21T06:49:00;101210.97;;;8.69;100.00
76627;BME280;65519;53.230;10.390;2024-02-21T06:51:26;101206.84;;;8.67;100.00
76627;BME280;65519;53.230;10.390;2024-02-21T06:53:55;101206.84;;;8.67;100.00
76627;BME280;65519;53.230;10.390;2024-02-21T06:56:23;101212.78;;;8.64;100.00
76627;BME280;65519;53.230;10.390;2024-02-21T06:58:52;101214.78;;;8.68;100.00
76627;BME280;65519;53.230;10.390;2024-02-21T07:01:18;101215.25;;;8.65;100.00
76627;BME280;65519;53.230;10.390;2024-02-21T07:03:43;101208.91;;;8.60;100.00
76627;BME280;65519;53.230;10.390;2024-02-21T07:06:08;101205.38;;;8.59;100.00
76627;BME280;65519;53.230;10.390;2024-02-21T07:08:34;101208.09;;;8.59;100.00
76627;BME280;65519;53.230;10.390;2024-02-21T07:10:59;101199.94;;;8.59;100.00
76627;BME280;65519;53.230;10.390;2024-02-21T07:13:25;101204.97;;;8.67;100.00
76627;BME280;65519;53.230;10.390;2024-02-21T07:15:50;101209.63;;;8.55;100.00
76627;BME280;65519;53.230;10.390;2024-02-21T07:18:16;101215.94;;;8.72;100.00
76627;BME280;65519;53.230;10.390;2024-02-21T07:20:41;101211.66;;;8.76;100.00
76627;BME280;65519;53.230;10.390;2024-02-21T07:23:08;101228.47;;;8.73;100.00
76627;BME280;65519;53.230;10.390;2024-02-21T07:25:34;101226.13;;;8.65;100.00
76627;BME280;65519;53.230;10.390;2024-02-21T07:27:59;101219.06;;;8.64;100.00
76627;BME280;65519;53.230;10.390;2024-02-21T07:30:25;101226.13;;;8.65;100.00
76627;BME280;65519;53.230;10.390;2024-02-21T07:32:50;101236.63;;;8.73;100.00
76627;BME280;65519;53.230;10.390;2024-02-21T07:35:17;101237.75;;;8.77;100.00
76627;BME280;65519;53.230;10.390;2024-02-21T07:37:43;101231.06;;;8.68;100.00
76627;BME280;65519;53.230;10.390;2024-02-21T07:40:17;101237.28;;;8.81;100.00
76627;BME280;65519;53.230;10.390;2024-02-21T07:42:43;101240.28;;;8.67;100.00
76627;BME280;65519;53.230;10.390;2024-02-21T07:45:09;101239.34;;;8.73;100.00
76627;BME280;65519;53.230;10.390;2024-02-21T07:47:35;101247.56;;;8.78;100.00
76627;BME280;65519;53.230;10.390;2024-02-21T07:50:01;101228.47;;;8.73;100.00
76627;BME280;65519;53.230;10.390;2024-02-21T07:52:27;101227.97;;;8.76;100.00
76627;BME280;65519;53.230;10.390;2024-02-21T07:54:53;101223.63;;;8.75;100.00
76627;BME280;65519;53.230;10.390;2024-02-21T07:57:18;101220.38;;;8.78;100.00
76627;BME280;65519;53.230;10.390;2024-02-21T07:59:44;101216.19;;;8.88;100.00
76627;BME280;65519;53.230;10.390;2024-02-21T08:02:09;101223.47;;;8.99;100.00
76627;BME280;65519;53.230;10.390;2024-02-21T08:04:35;101214.47;;;8.82;100.00
76627;BME280;65519;53.230;10.390;2024-02-21T08:07:01;101216.19;;;8.88;100.00
76627;BME280;65519;53.230;10.390;2024-02-21T08:09:28;101220.69;;;8.94;100.00
76627;BME280;65519;53.230;10.390;2024-02-21T08:11:56;101213.25;;;8.89;100.00
76627;BME280;65519;53.230;10.390;2024-02-21T08:14:22;101210.38;;;8.96;100.00
76627;BME280;65519;53.230;10.390;2024-02-21T08:16:48;101212.69;;;9.04;100.00
76627;BME280;65519;53.230;10.390;2024-02-21T08:19:13;101211.75;;;8.98;100.00
76627;BME280;65519;53.230;10.390;2024-02-21T08:21:39;101216.38;;;8.98;100.00
76627;BME280;65519;53.230;10.390;2024-02-21T08:24:04;101222.09;;;8.96;100.00
76627;BME280;65519;53.230;10.390;2024-02-21T08:26:30;101201.16;;;9.13;100.00
76627;BME280;65519;53.230;10.390;2024-02-21T08:28:57;101205.00;;;9.01;100.00
76627;BME280;65519;53.230;10.390;2024-02-21T08:31:28;101204.78;;;9.02;100.00
76627;BME280;65519;53.230;10.390;2024-02-21T08:34:03;101202.56;;;9.16;100.00
76627;BME280;65519;53.230;10.390;2024-02-21T08:38:56;101199.16;;;9.09;100.00
76627;BME280;65519;53.230;10.390;2024-02-21T08:41:23;101212.19;;;9.24;100.00
76627;BME280;65519;53.230;10.390;2024-02-21T08:43:52;101194.25;;;9.06;100.00
76627;BME280;65519;53.230;10.390;2024-02-21T08:46:24;101192.31;;;9.23;100.00
76627;BME280;65519;53.230;10.390;2024-02-21T08:48:51;101193.06;;;9.35;100.00
76627;BME280;65519;53.230;10.390;2024-02-21T08:51:17;101197.88;;;9.28;100.00
76627;BME280;65519;53.230;10.390;2024-02-21T08:53:46;101192.81;;;9.37;100.00
76627;BME280;65519;53.230;10.390;2024-02-21T08:56:12;101200.22;;;9.41;100.00
76627;BME280;65519;53.230;10.390;2024-02-21T08:58:39;101179.38;;;9.30;100.00
76627;BME280;65519;53.230;10.390;2024-02-21T09:01:06;101194.81;;;9.25;100.00
76627;BME280;65519;53.230;10.390;2024-02-21T09:03:35;101189.75;;;9.33;100.00
76627;BME280;65519;53.230;10.390;2024-02-21T09:06:01;101181.03;;;9.31;100.00
76627;BME280;65519;53.230;10.390;2024-02-21T09:08:26;101183.00;;;9.36;100.00
76627;BME280;65519;53.230;10.390;2024-02-21T09:10:52;101192.81;;;9.20;100.00
76627;BME280;65519;53.230;10.390;2024-02-21T09:13:18;101194.56;;;9.26;100.00
76627;BME280;65519;53.230;10.390;2024-02-21T09:15:44;101178.81;;;9.28;100.00
76627;BME280;65519;53.230;10.390;2024-02-21T09:18:09;101170.00;;;9.21;100.00
76627;BME280;65519;53.230;10.390;2024-02-21T09:20:35;101181.03;;;9.31;100.00
76627;BME280;65519;53.230;10.390;2024-02-21T09:23:00;101181.34;;;9.51;100.00
76627;BME280;65519;53.230;10.390;2024-02-21T09:25:26;101186.31;;;9.38;100.00
76627;BME280;65519;53.230;10.390;2024-02-21T09:27:54;101185.63;;;9.47;100.00
76627;BME280;65519;53.230;10.390;2024-02-21T09:30:20;101185.63;;;9.47;100.00
76627;BME280;65519;53.230;10.390;2024-02-21T09:32:46;101182.81;;;9.42;100.00
76627;BME280;65519;53.230;10.390;2024-02-21T09:35:11;101184.81;;;9.30;100.00
76627;BME280;65519;53.230;10.390;2024-02-21T09:37:38;101178.25;;;9.26;100.00
76627;BME280;65519;53.230;10.390;2024-02-21T09:40:04;101177.66;;;9.41;100.00
76627;BME280;65519;53.230;10.390;2024-02-21T09:42:40;101179.88;;;9.10;100.00
76627;BME280;65519;53.230;10.390;2024-02-21T09:45:23;101177.72;;;9.46;100.00
76627;BME280;65519;53.230;10.390;2024-02-21T09:48:25;101179.00;;;9.05;100.00
76627;BME280;65519;53.230;10.390;2024-02-21T09:50:54;101173.97;;;8.97;100.00
76627;BME280;65519;53.230;10.390;2024-02-21T09:53:21;101170.91;;;9.10;100.00
76627;BME280;65519;53.230;10.390;2024-02-21T09:55:49;101160.44;;;9.02;100.00
76627;BME280;65519;53.230;10.390;2024-02-21T09:58:15;101172.41;;;9.18;100.00
76627;BME280;65519;53.230;10.390;2024-02-21T10:00:41;101165.47;;;9.27;100.00
76627;BME280;65519;53.230;10.390;2024-02-21T10:03:06;101162.84;;;9.15;100.00
76627;BME280;65519;53.230;10.390;2024-02-21T10:05:35;101154.16;;;9.01;100.00
76627;BME280;65519;53.230;10.390;2024-02-21T10:08:02;101165.38;;;9.05;100.00
76627;BME280;65519;53.230;10.390;2024-02-21T10:10:27;101168.19;;;8.93;100.00
76627;BME280;65519;53.230;10.390;2024-02-21T10:12:55;101161.69;;;8.94;100.00
76627;BME280;65519;53.230;10.390;2024-02-21T10:15:22;101176.28;;;9.05;100.00
76627;BME280;65519;53.230;10.390;2024-02-21T10:18:01;101170.59;;;9.06;100.00
76627;BME280;65519;53.230;10.390;2024-02-21T10:20:28;101164.63;;;9.09;100.00
76627;BME280;65519;53.230;10.390;2024-02-21T10:23:04;101153.50;;;9.11;100.00
76627;BME280;65519;53.230;10.390;2024-02-21T10:25:34;101165.22;;;9.11;100.00
76627;BME280;65519;53.230;10.390;2024-02-21T10:28:02;101159.69;;;9.23;100.00
76627;BME280;65519;53.230;10.390;2024-02-21T10:30:27;101159.09;;;9.21;100.00
76627;BME280;65519;53.230;10.390;2024-02-21T10:32:54;101156.88;;;9.35;100.00
76627;BME280;65519;53.230;10.390;2024-02-21T10:35:30;101154.16;;;9.35;100.00
76627;BME280;65519;53.230;10.390;2024-02-21T10:37:56;101153.41;;;9.23;100.00
76627;BME280;65519;53.230;10.390;2024-02-21T10:40:26;101143.75;;;9.48;100.00
76627;BME280;65519;53.230;10.390;2024-02-21T10:43:00;101148.72;;;9.35;100.00
76627;BME280;65519;53.230;10.390;2024-02-21T10:45:36;101145.25;;;9.39;100.00
76627;BME280;65519;53.230;10.390;2024-02-21T10:48:11;101150.16;;;9.42;100.00
76627;BME280;65519;53.230;10.390;2024-02-21T10:53:44;101143.50;;;9.50;100.00
76627;BME280;65519;53.230;10.390;2024-02-21T10:56:34;101133.00;;;9.59;100.00
76627;BME280;65519;53.230;10.390;2024-02-21T10:59:06;101127.59;;;9.64;100.00
76627;BME280;65519;53.230;10.390;2024-02-21T11:01:32;101121.53;;;9.57;100.00
76627;BME280;65519;53.230;10.390;2024-02-21T11:04:05;101118.13;;;9.66;100.00
76627;BME280;65519;53.230;10.390;2024-02-21T11:06:32;101121.66;;;9.67;100.00
76627;BME280;65519;53.230;10.390;2024-02-21T11:14:19;101120.09;;;9.49;100.00
76627;BME280;65519;53.230;10.390;2024-02-21T11:16:45;101105.56;;;9.43;100.00
76627;BME280;65519;53.230;10.390;2024-02-21T11:19:22;101110.72;;;9.40;100.00
76627;BME280;65519;53.230;10.390;2024-02-21T11:21:48;101114.38;;;9.50;100.00
76627;BME280;65519;53.230;10.390;2024-02-21T11:24:14;101105.91;;;9.30;100.00
76627;BME280;65519;53.230;10.390;2024-02-21T11:26:40;101108.22;;;9.38;100.00
76627;BME280;65519;53.230;10.390;2024-02-21T11:29:08;101093.66;;;9.28;100.00
76627;BME280;65519;53.230;10.390;2024-02-21T11:31:43;101095.13;;;9.35;100.00
76627;BME280;65519;53.230;10.390;2024-02-21T11:34:11;101097.38;;;9.22;100.00
76627;BME280;65519;53.230;10.390;2024-02-21T11:36:51;101100.16;;;9.27;100.00
76627;BME280;65519;53.230;10.390;2024-02-21T11:42:04;101091.78;;;9.11;100.00
76627;BME280;65519;53.230;10.390;2024-02-21T11:44:30;101086.47;;;9.22;100.00
76627;BME280;65519;53.230;10.390;2024-02-21T11:46:56;101085.66;;;9.21;100.00
76627;BME280;65519;53.230;10.390;2024-02-21T11:49:24;101081.00;;;9.17;100.00
76627;BME280;65519;53.230;10.390;2024-02-21T11:51:57;101074.72;;;9.16;100.00
76627;BME280;65519;53.230;10.390;2024-02-21T11:54:24;101085.03;;;9.14;100.00
76627;BME280;65519;53.230;10.390;2024-02-21T11:56:49;101071.84;;;9.06;100.00
76627;BME280;65519;53.230;10.390;2024-02-21T11:59:15;101086.09;;;9.13;100.00
76627;BME280;65519;53.230;10.390;2024-02-21T12:01:40;101068.72;;;9.14;100.00
76627;BME280;65519;53.230;10.390;2024-02-21T12:04:06;101053.25;;;9.20;100.00
76627;BME280;65519;53.230;10.390;2024-02-21T12:06:32;101045.53;;;9.28;100.00
76627;BME280;65519;53.230;10.390;2024-02-21T12:08:58;101042.09;;;9.16;100.00
76627;BME280;65519;53.230;10.390;2024-02-21T12:11:24;101045.31;;;9.35;100.00
76627;BME280;65519;53.230;10.390;2024-02-21T12:14:03;101040.56;;;9.25;100.00
76627;BME280;65519;53.230;10.390;2024-02-21T12:16:33;101035.75;;;9.32;100.00
76627;BME280;65519;53.230;10.390;2024-02-21T12:18:59;101031.38;;;9.31;100.00
76627;BME280;65519;53.230;10.390;2024-02-21T12:21:32;101030.84;;;9.29;100.00
76627;BME280;65519;53.230;10.390;2024-02-21T12:23:58;101026.03;;;9.36;100.00
76627;BME280;65519;53.230;10.390;2024-02-21T12:26:25;101029.31;;;9.38;100.00
76627;BME280;65519;53.230;10.390;2024-02-21T12:28:51;101027.59;;;9.32;100.00
76627;BME280;65519;53.230;10.390;2024-02-21T12:31:16;101021.75;;;9.40;100.00
76627;BME280;65519;53.230;10.390;2024-02-21T12:33:43;101020.97;;;9.45;100.00
76627;BME280;65519;53.230;10.390;2024-02-21T12:36:08;101015.88;;;9.53;100.00
76627;BME280;65519;53.230;10.390;2024-02-21T12:38:34;101011.94;;;9.39;100.00
76627;BME280;65519;53.230;10.390;2024-02-21T12:41:00;101009.81;;;9.46;100.00
76627;BME280;65519;53.230;10.390;2024-02-21T12:43:26;101007.59;;;9.43;100.00
76627;BME280;65519;53.230;10.390;2024-02-21T12:45:52;101008.50;;;9.49;100.00
76627;BME280;65519;53.230;10.390;2024-02-21T12:48:18;100996.09;;;9.58;100.00
76627;BME280;65519;53.230;10.390;2024-02-21T12:50:50;100985.81;;;9.65;100.00